MIA weather

Miami International Airport
Miami, Florida, United States

Public forecast

Using degrees Fahrenheit for public forecast. Weather courtesy of forecast.io.

METAR (pilot weather report)

Retrieved 2017/10/19 10:53 UTC (57 minutes ago):

KMIA 191053Z 01004KT 10SM FEW005 FEW020 FEW250 24/23 A2999 RMK AO2 SLP157 T02440233

TAF (pilot weather forecast)

Retrieved 2017/10/19 06:36 UTC (5 hours ago):

TAF KMIA 190534Z 1906/2006 VRB05KT P6SM VCSH FEW025 BKN050 OVC120 FM191500 06009KT P6SM VCSH SCT025 BKN060